sensor_id;sensor_type;location;lat;lon;timestamp;P1;durP1;ratioP1;P2;durP2;ratioP2
52718;SDS011;38616;42.140;24.760;2022-12-18T00:01:28;44.08;;;24.88;;
52718;SDS011;38616;42.140;24.760;2022-12-18T00:03:56;44.92;;;24.15;;
52718;SDS011;38616;42.140;24.760;2022-12-18T00:06:25;47.05;;;24.67;;
52718;SDS011;38616;42.140;24.760;2022-12-18T00:08:52;41.53;;;23.52;;
52718;SDS011;38616;42.140;24.760;2022-12-18T00:11:18;41.60;;;24.70;;
52718;SDS011;38616;42.140;24.760;2022-12-18T00:13:45;41.83;;;23.63;;
52718;SDS011;38616;42.140;24.760;2022-12-18T00:16:12;44.08;;;24.52;;
52718;SDS011;38616;42.140;24.760;2022-12-18T00:18:39;45.33;;;24.67;;
52718;SDS011;38616;42.140;24.760;2022-12-18T00:21:06;45.80;;;23.90;;
52718;SDS011;38616;42.140;24.760;2022-12-18T00:23:33;49.88;;;26.00;;
52718;SDS011;38616;42.140;24.760;2022-12-18T00:26:00;42.15;;;24.75;;
52718;SDS011;38616;42.140;24.760;2022-12-18T00:28:26;45.88;;;24.70;;
52718;SDS011;38616;42.140;24.760;2022-12-18T00:30:59;41.05;;;23.10;;
52718;SDS011;38616;42.140;24.760;2022-12-18T00:33:32;39.25;;;23.13;;
52718;SDS011;38616;42.140;24.760;2022-12-18T00:36:01;36.38;;;21.58;;
52718;SDS011;38616;42.140;24.760;2022-12-18T00:38:30;39.15;;;23.23;;
52718;SDS011;38616;42.140;24.760;2022-12-18T00:40:55;41.90;;;24.50;;
52718;SDS011;38616;42.140;24.760;2022-12-18T00:43:20;39.25;;;23.92;;
52718;SDS011;38616;42.140;24.760;2022-12-18T00:45:46;45.17;;;25.85;;
52718;SDS011;38616;42.140;24.760;2022-12-18T00:48:11;53.25;;;24.73;;
52718;SDS011;38616;42.140;24.760;2022-12-18T00:50:37;45.67;;;24.58;;
52718;SDS011;38616;42.140;24.760;2022-12-18T00:53:03;45.85;;;24.52;;
52718;SDS011;38616;42.140;24.760;2022-12-18T00:55:28;40.42;;;21.73;;
52718;SDS011;38616;42.140;24.760;2022-12-18T00:57:54;40.92;;;22.15;;
52718;SDS011;38616;42.140;24.760;2022-12-18T01:00:19;41.92;;;23.77;;
52718;SDS011;38616;42.140;24.760;2022-12-18T01:02:44;47.33;;;22.70;;
52718;SDS011;38616;42.140;24.760;2022-12-18T01:05:10;42.67;;;21.90;;
52718;SDS011;38616;42.140;24.760;2022-12-18T01:07:37;46.00;;;21.50;;
52718;SDS011;38616;42.140;24.760;2022-12-18T01:10:03;40.45;;;23.38;;
52718;SDS011;38616;42.140;24.760;2022-12-18T01:12:29;45.30;;;23.13;;
52718;SDS011;38616;42.140;24.760;2022-12-18T01:14:55;40.80;;;22.65;;
52718;SDS011;38616;42.140;24.760;2022-12-18T01:17:21;39.42;;;20.92;;
52718;SDS011;38616;42.140;24.760;2022-12-18T01:19:46;46.58;;;23.27;;
52718;SDS011;38616;42.140;24.760;2022-12-18T01:22:12;37.17;;;20.23;;
52718;SDS011;38616;42.140;24.760;2022-12-18T01:24:37;44.63;;;23.13;;
52718;SDS011;38616;42.140;24.760;2022-12-18T01:27:02;38.13;;;21.33;;
52718;SDS011;38616;42.140;24.760;2022-12-18T01:29:28;42.97;;;21.30;;
52718;SDS011;38616;42.140;24.760;2022-12-18T01:31:54;38.53;;;21.92;;
52718;SDS011;38616;42.140;24.760;2022-12-18T01:34:21;34.43;;;19.57;;
52718;SDS011;38616;42.140;24.760;2022-12-18T01:36:47;33.58;;;20.40;;
52718;SDS011;38616;42.140;24.760;2022-12-18T01:39:13;36.75;;;19.63;;
52718;SDS011;38616;42.140;24.760;2022-12-18T01:41:40;35.95;;;20.85;;
52718;SDS011;38616;42.140;24.760;2022-12-18T01:52:41;36.33;;;20.73;;
52718;SDS011;38616;42.140;24.760;2022-12-18T01:57:34;32.75;;;19.95;;
52718;SDS011;38616;42.140;24.760;2022-12-18T02:00:03;35.42;;;19.38;;
52718;SDS011;38616;42.140;24.760;2022-12-18T02:02:32;36.90;;;18.85;;
52718;SDS011;38616;42.140;24.760;2022-12-18T02:04:57;30.65;;;17.10;;
52718;SDS011;38616;42.140;24.760;2022-12-18T02:07:32;26.20;;;15.82;;
52718;SDS011;38616;42.140;24.760;2022-12-18T02:10:11;27.35;;;15.27;;
52718;SDS011;38616;42.140;24.760;2022-12-18T02:15:40;27.75;;;13.75;;
52718;SDS011;38616;42.140;24.760;2022-12-18T02:18:22;26.42;;;14.25;;
52718;SDS011;38616;42.140;24.760;2022-12-18T02:26:28;26.75;;;12.68;;
52718;SDS011;38616;42.140;24.760;2022-12-18T02:29:04;22.10;;;13.27;;
52718;SDS011;38616;42.140;24.760;2022-12-18T02:31:36;20.65;;;12.55;;
52718;SDS011;38616;42.140;24.760;2022-12-18T02:34:16;25.73;;;14.30;;
52718;SDS011;38616;42.140;24.760;2022-12-18T02:36:43;21.27;;;12.50;;
52718;SDS011;38616;42.140;24.760;2022-12-18T02:39:11;22.88;;;12.20;;
52718;SDS011;38616;42.140;24.760;2022-12-18T02:41:38;21.77;;;12.60;;
52718;SDS011;38616;42.140;24.760;2022-12-18T02:44:09;22.67;;;11.65;;
52718;SDS011;38616;42.140;24.760;2022-12-18T02:46:44;22.58;;;12.75;;
52718;SDS011;38616;42.140;24.760;2022-12-18T02:49:35;22.92;;;12.00;;
52718;SDS011;38616;42.140;24.760;2022-12-18T02:54:49;23.15;;;12.80;;
52718;SDS011;38616;42.140;24.760;2022-12-18T02:57:24;19.60;;;10.63;;
52718;SDS011;38616;42.140;24.760;2022-12-18T03:00:10;20.58;;;12.18;;
52718;SDS011;38616;42.140;24.760;2022-12-18T03:05:18;24.42;;;11.77;;
52718;SDS011;38616;42.140;24.760;2022-12-18T03:07:58;21.52;;;11.88;;
52718;SDS011;38616;42.140;24.760;2022-12-18T03:10:30;24.98;;;12.55;;
52718;SDS011;38616;42.140;24.760;2022-12-18T03:13:01;21.02;;;11.40;;
52718;SDS011;38616;42.140;24.760;2022-12-18T03:15:37;20.27;;;11.30;;
52718;SDS011;38616;42.140;24.760;2022-12-18T03:18:12;22.33;;;11.00;;
52718;SDS011;38616;42.140;24.760;2022-12-18T03:20:42;24.45;;;12.00;;
52718;SDS011;38616;42.140;24.760;2022-12-18T03:23:11;20.42;;;11.75;;
52718;SDS011;38616;42.140;24.760;2022-12-18T03:25:42;20.20;;;11.00;;
52718;SDS011;38616;42.140;24.760;2022-12-18T03:28:16;21.80;;;11.20;;
52718;SDS011;38616;42.140;24.760;2022-12-18T03:30:45;18.58;;;11.50;;
52718;SDS011;38616;42.140;24.760;2022-12-18T03:33:19;20.47;;;10.87;;
52718;SDS011;38616;42.140;24.760;2022-12-18T03:35:50;18.15;;;10.75;;
52718;SDS011;38616;42.140;24.760;2022-12-18T03:38:16;22.52;;;11.90;;
52718;SDS011;38616;42.140;24.760;2022-12-18T03:43:14;24.15;;;11.10;;
52718;SDS011;38616;42.140;24.760;2022-12-18T03:46:01;21.30;;;11.50;;
52718;SDS011;38616;42.140;24.760;2022-12-18T03:48:31;18.50;;;9.30;;
52718;SDS011;38616;42.140;24.760;2022-12-18T03:51:45;17.63;;;9.70;;
52718;SDS011;38616;42.140;24.760;2022-12-18T03:56:36;24.42;;;9.73;;
52718;SDS011;38616;42.140;24.760;2022-12-18T03:59:05;20.85;;;11.20;;
52718;SDS011;38616;42.140;24.760;2022-12-18T04:01:36;23.97;;;10.57;;
52718;SDS011;38616;42.140;24.760;2022-12-18T04:04:05;17.83;;;9.25;;
52718;SDS011;38616;42.140;24.760;2022-12-18T04:06:34;15.80;;;8.70;;
52718;SDS011;38616;42.140;24.760;2022-12-18T04:09:01;16.48;;;8.45;;
52718;SDS011;38616;42.140;24.760;2022-12-18T04:11:27;17.20;;;9.68;;
52718;SDS011;38616;42.140;24.760;2022-12-18T04:13:55;18.80;;;9.32;;
52718;SDS011;38616;42.140;24.760;2022-12-18T04:16:22;21.30;;;8.02;;
52718;SDS011;38616;42.140;24.760;2022-12-18T04:18:48;14.65;;;8.75;;
52718;SDS011;38616;42.140;24.760;2022-12-18T04:21:14;15.43;;;8.52;;
52718;SDS011;38616;42.140;24.760;2022-12-18T04:23:39;17.13;;;9.10;;
52718;SDS011;38616;42.140;24.760;2022-12-18T04:26:04;14.85;;;8.32;;
52718;SDS011;38616;42.140;24.760;2022-12-18T04:28:30;19.90;;;8.35;;
52718;SDS011;38616;42.140;24.760;2022-12-18T04:30:55;18.17;;;8.35;;
52718;SDS011;38616;42.140;24.760;2022-12-18T04:33:21;15.07;;;7.95;;
52718;SDS011;38616;42.140;24.760;2022-12-18T04:35:46;15.45;;;7.88;;
52718;SDS011;38616;42.140;24.760;2022-12-18T04:38:11;13.32;;;6.47;;
52718;SDS011;38616;42.140;24.760;2022-12-18T04:40:37;10.75;;;6.22;;
52718;SDS011;38616;42.140;24.760;2022-12-18T04:43:03;14.57;;;7.82;;
52718;SDS011;38616;42.140;24.760;2022-12-18T04:45:29;12.85;;;6.85;;
52718;SDS011;38616;42.140;24.760;2022-12-18T04:47:57;13.23;;;6.78;;
52718;SDS011;38616;42.140;24.760;2022-12-18T04:50:24;10.13;;;6.05;;
52718;SDS011;38616;42.140;24.760;2022-12-18T04:52:49;12.73;;;5.80;;
52718;SDS011;38616;42.140;24.760;2022-12-18T04:55:15;10.25;;;5.68;;
52718;SDS011;38616;42.140;24.760;2022-12-18T04:57:40;10.07;;;5.32;;
52718;SDS011;38616;42.140;24.760;2022-12-18T05:00:06;13.30;;;5.38;;
52718;SDS011;38616;42.140;24.760;2022-12-18T05:02:32;9.00;;;5.00;;
52718;SDS011;38616;42.140;24.760;2022-12-18T05:04:57;8.15;;;4.90;;
52718;SDS011;38616;42.140;24.760;2022-12-18T05:07:23;9.23;;;4.90;;
52718;SDS011;38616;42.140;24.760;2022-12-18T05:09:48;9.57;;;4.63;;
52718;SDS011;38616;42.140;24.760;2022-12-18T05:12:14;11.45;;;5.18;;
52718;SDS011;38616;42.140;24.760;2022-12-18T05:14:39;9.05;;;4.47;;
52718;SDS011;38616;42.140;24.760;2022-12-18T05:17:04;10.18;;;4.45;;
52718;SDS011;38616;42.140;24.760;2022-12-18T05:19:30;8.57;;;3.95;;
52718;SDS011;38616;42.140;24.760;2022-12-18T05:21:55;8.18;;;4.22;;
52718;SDS011;38616;42.140;24.760;2022-12-18T05:24:20;10.10;;;5.22;;
52718;SDS011;38616;42.140;24.760;2022-12-18T05:26:46;11.93;;;5.20;;
52718;SDS011;38616;42.140;24.760;2022-12-18T05:29:11;9.88;;;5.18;;
52718;SDS011;38616;42.140;24.760;2022-12-18T05:31:37;9.25;;;5.00;;
52718;SDS011;38616;42.140;24.760;2022-12-18T05:34:03;7.47;;;4.20;;
52718;SDS011;38616;42.140;24.760;2022-12-18T05:36:29;11.13;;;5.88;;
52718;SDS011;38616;42.140;24.760;2022-12-18T05:38:54;8.60;;;4.88;;
52718;SDS011;38616;42.140;24.760;2022-12-18T05:41:20;9.82;;;5.47;;
52718;SDS011;38616;42.140;24.760;2022-12-18T05:43:45;6.70;;;4.35;;
52718;SDS011;38616;42.140;24.760;2022-12-18T05:46:15;9.20;;;4.40;;
52718;SDS011;38616;42.140;24.760;2022-12-18T05:48:42;8.15;;;3.80;;
52718;SDS011;38616;42.140;24.760;2022-12-18T05:51:13;11.45;;;5.05;;
52718;SDS011;38616;42.140;24.760;2022-12-18T05:53:40;10.40;;;5.30;;
52718;SDS011;38616;42.140;24.760;2022-12-18T05:56:08;9.02;;;5.05;;
52718;SDS011;38616;42.140;24.760;2022-12-18T05:58:36;11.48;;;5.10;;
52718;SDS011;38616;42.140;24.760;2022-12-18T06:01:06;9.85;;;4.90;;
52718;SDS011;38616;42.140;24.760;2022-12-18T06:03:39;10.52;;;4.95;;
52718;SDS011;38616;42.140;24.760;2022-12-18T06:06:12;9.90;;;5.22;;
52718;SDS011;38616;42.140;24.760;2022-12-18T06:08:38;8.43;;;4.88;;
52718;SDS011;38616;42.140;24.760;2022-12-18T06:11:04;9.18;;;3.80;;
52718;SDS011;38616;42.140;24.760;2022-12-18T06:13:29;8.73;;;4.57;;
52718;SDS011;38616;42.140;24.760;2022-12-18T06:15:55;7.97;;;4.45;;
52718;SDS011;38616;42.140;24.760;2022-12-18T06:18:20;9.38;;;4.45;;
52718;SDS011;38616;42.140;24.760;2022-12-18T06:20:53;8.98;;;4.57;;
52718;SDS011;38616;42.140;24.760;2022-12-18T06:23:19;10.93;;;4.20;;
52718;SDS011;38616;42.140;24.760;2022-12-18T06:25:45;10.23;;;4.30;;
52718;SDS011;38616;42.140;24.760;2022-12-18T06:28:10;10.32;;;3.88;;
52718;SDS011;38616;42.140;24.760;2022-12-18T06:30:36;9.88;;;4.90;;
52718;SDS011;38616;42.140;24.760;2022-12-18T06:33:01;14.65;;;5.18;;
52718;SDS011;38616;42.140;24.760;2022-12-18T06:35:26;8.23;;;4.20;;
52718;SDS011;38616;42.140;24.760;2022-12-18T06:37:52;8.93;;;4.43;;
52718;SDS011;38616;42.140;24.760;2022-12-18T06:40:17;7.78;;;4.30;;
52718;SDS011;38616;42.140;24.760;2022-12-18T06:42:43;10.52;;;4.75;;
52718;SDS011;38616;42.140;24.760;2022-12-18T06:45:08;7.68;;;3.85;;
52718;SDS011;38616;42.140;24.760;2022-12-18T06:47:34;11.40;;;4.38;;
52718;SDS011;38616;42.140;24.760;2022-12-18T06:49:59;8.48;;;3.97;;
52718;SDS011;38616;42.140;24.760;2022-12-18T06:52:25;9.85;;;5.20;;
52718;SDS011;38616;42.140;24.760;2022-12-18T06:54:50;11.18;;;6.28;;
52718;SDS011;38616;42.140;24.760;2022-12-18T06:57:16;15.15;;;6.38;;
52718;SDS011;38616;42.140;24.760;2022-12-18T06:59:41;13.55;;;5.03;;
52718;SDS011;38616;42.140;24.760;2022-12-18T07:02:09;20.58;;;9.38;;
52718;SDS011;38616;42.140;24.760;2022-12-18T07:04:39;11.65;;;6.45;;
52718;SDS011;38616;42.140;24.760;2022-12-18T07:07:04;12.05;;;6.50;;
52718;SDS011;38616;42.140;24.760;2022-12-18T07:09:29;9.38;;;5.10;;
52718;SDS011;38616;42.140;24.760;2022-12-18T07:11:55;12.38;;;6.03;;
52718;SDS011;38616;42.140;24.760;2022-12-18T07:14:20;11.02;;;5.47;;
52718;SDS011;38616;42.140;24.760;2022-12-18T07:16:46;10.48;;;5.32;;
52718;SDS011;38616;42.140;24.760;2022-12-18T07:19:11;9.25;;;5.03;;
52718;SDS011;38616;42.140;24.760;2022-12-18T07:21:37;13.43;;;6.80;;
52718;SDS011;38616;42.140;24.760;2022-12-18T07:24:02;10.30;;;5.55;;
52718;SDS011;38616;42.140;24.760;2022-12-18T07:26:28;10.70;;;4.78;;
52718;SDS011;38616;42.140;24.760;2022-12-18T07:28:57;12.85;;;6.68;;
52718;SDS011;38616;42.140;24.760;2022-12-18T07:31:23;8.90;;;4.93;;
52718;SDS011;38616;42.140;24.760;2022-12-18T07:33:49;10.07;;;4.93;;
52718;SDS011;38616;42.140;24.760;2022-12-18T07:36:15;10.13;;;5.25;;
52718;SDS011;38616;42.140;24.760;2022-12-18T07:38:41;12.63;;;4.97;;
52718;SDS011;38616;42.140;24.760;2022-12-18T07:41:08;9.75;;;4.78;;
52718;SDS011;38616;42.140;24.760;2022-12-18T07:43:36;8.60;;;4.75;;
52718;SDS011;38616;42.140;24.760;2022-12-18T07:46:03;11.93;;;5.53;;
52718;SDS011;38616;42.140;24.760;2022-12-18T07:48:29;11.85;;;6.93;;
52718;SDS011;38616;42.140;24.760;2022-12-18T07:51:02;12.07;;;4.53;;
52718;SDS011;38616;42.140;24.760;2022-12-18T07:53:29;9.30;;;4.60;;
52718;SDS011;38616;42.140;24.760;2022-12-18T07:55:59;15.20;;;4.80;;
52718;SDS011;38616;42.140;24.760;2022-12-18T07:58:27;14.70;;;6.28;;
52718;SDS011;38616;42.140;24.760;2022-12-18T08:00:53;27.38;;;11.88;;
52718;SDS011;38616;42.140;24.760;2022-12-18T08:03:18;11.57;;;5.05;;
52718;SDS011;38616;42.140;24.760;2022-12-18T08:05:44;12.30;;;5.93;;
52718;SDS011;38616;42.140;24.760;2022-12-18T08:08:10;9.90;;;5.07;;
52718;SDS011;38616;42.140;24.760;2022-12-18T08:10:35;12.35;;;5.40;;
52718;SDS011;38616;42.140;24.760;2022-12-18T08:13:01;10.30;;;5.30;;
52718;SDS011;38616;42.140;24.760;2022-12-18T08:15:27;10.57;;;4.78;;
52718;SDS011;38616;42.140;24.760;2022-12-18T08:17:54;9.32;;;4.82;;
52718;SDS011;38616;42.140;24.760;2022-12-18T08:20:21;10.00;;;5.25;;
52718;SDS011;38616;42.140;24.760;2022-12-18T08:22:47;14.18;;;5.95;;
52718;SDS011;38616;42.140;24.760;2022-12-18T08:25:12;13.23;;;5.20;;
52718;SDS011;38616;42.140;24.760;2022-12-18T08:27:37;11.27;;;5.60;;
52718;SDS011;38616;42.140;24.760;2022-12-18T08:30:03;12.45;;;4.38;;
52718;SDS011;38616;42.140;24.760;2022-12-18T08:32:29;9.23;;;4.82;;
52718;SDS011;38616;42.140;24.760;2022-12-18T08:34:55;11.32;;;5.40;;
52718;SDS011;38616;42.140;24.760;2022-12-18T08:37:20;10.45;;;4.70;;
52718;SDS011;38616;42.140;24.760;2022-12-18T08:39:45;11.10;;;5.07;;
52718;SDS011;38616;42.140;24.760;2022-12-18T08:42:11;12.20;;;4.88;;
52718;SDS011;38616;42.140;24.760;2022-12-18T08:44:55;8.18;;;4.40;;
52718;SDS011;38616;42.140;24.760;2022-12-18T08:47:20;12.75;;;5.25;;
52718;SDS011;38616;42.140;24.760;2022-12-18T08:49:46;12.05;;;6.13;;
52718;SDS011;38616;42.140;24.760;2022-12-18T08:52:14;11.68;;;5.20;;
52718;SDS011;38616;42.140;24.760;2022-12-18T08:54:40;10.43;;;4.47;;
52718;SDS011;38616;42.140;24.760;2022-12-18T08:57:05;11.48;;;4.63;;
52718;SDS011;38616;42.140;24.760;2022-12-18T08:59:30;11.98;;;5.90;;
52718;SDS011;38616;42.140;24.760;2022-12-18T09:01:56;11.40;;;5.43;;
52718;SDS011;38616;42.140;24.760;2022-12-18T09:04:21;10.80;;;5.32;;
52718;SDS011;38616;42.140;24.760;2022-12-18T09:06:47;9.90;;;5.13;;
52718;SDS011;38616;42.140;24.760;2022-12-18T09:09:12;12.90;;;5.10;;
52718;SDS011;38616;42.140;24.760;2022-12-18T09:11:38;10.68;;;4.60;;
52718;SDS011;38616;42.140;24.760;2022-12-18T09:14:03;8.40;;;4.38;;
52718;SDS011;38616;42.140;24.760;2022-12-18T09:16:29;10.85;;;4.68;;
52718;SDS011;38616;42.140;24.760;2022-12-18T09:18:56;9.65;;;4.20;;
52718;SDS011;38616;42.140;24.760;2022-12-18T09:21:26;9.73;;;5.32;;
52718;SDS011;38616;42.140;24.760;2022-12-18T09:26:20;11.80;;;4.88;;
52718;SDS011;38616;42.140;24.760;2022-12-18T09:28:46;9.05;;;4.15;;
52718;SDS011;38616;42.140;24.760;2022-12-18T09:31:15;12.20;;;6.00;;
52718;SDS011;38616;42.140;24.760;2022-12-18T09:33:42;11.23;;;5.78;;
52718;SDS011;38616;42.140;24.760;2022-12-18T09:36:08;11.98;;;5.60;;
52718;SDS011;38616;42.140;24.760;2022-12-18T09:38:36;10.48;;;5.30;;
52718;SDS011;38616;42.140;24.760;2022-12-18T09:41:05;16.35;;;5.63;;
52718;SDS011;38616;42.140;24.760;2022-12-18T09:44:00;13.27;;;5.75;;
52718;SDS011;38616;42.140;24.760;2022-12-18T09:46:35;11.55;;;5.32;;
52718;SDS011;38616;42.140;24.760;2022-12-18T09:49:11;13.50;;;5.70;;
52718;SDS011;38616;42.140;24.760;2022-12-18T09:51:41;14.63;;;6.05;;
52718;SDS011;38616;42.140;24.760;2022-12-18T09:54:55;15.52;;;7.35;;
52718;SDS011;38616;42.140;24.760;2022-12-18T09:57:00;17.85;;;8.65;;
52718;SDS011;38616;42.140;24.760;2022-12-18T09:59:36;12.93;;;5.60;;
52718;SDS011;38616;42.140;24.760;2022-12-18T10:02:14;13.65;;;6.72;;
52718;SDS011;38616;42.140;24.760;2022-12-18T10:04:48;12.40;;;6.18;;
52718;SDS011;38616;42.140;24.760;2022-12-18T10:10:51;13.38;;;6.15;;
52718;SDS011;38616;42.140;24.760;2022-12-18T10:16:16;11.35;;;5.72;;
52718;SDS011;38616;42.140;24.760;2022-12-18T10:24:22;9.55;;;5.22;;
52718;SDS011;38616;42.140;24.760;2022-12-18T10:26:48;14.15;;;6.45;;
52718;SDS011;38616;42.140;24.760;2022-12-18T10:29:14;15.80;;;6.28;;
52718;SDS011;38616;42.140;24.760;2022-12-18T10:31:41;16.02;;;6.18;;
52718;SDS011;38616;42.140;24.760;2022-12-18T10:34:10;14.30;;;5.80;;
52718;SDS011;38616;42.140;24.760;2022-12-18T10:36:41;10.82;;;5.28;;
52718;SDS011;38616;42.140;24.760;2022-12-18T10:41:43;19.05;;;6.47;;
52718;SDS011;38616;42.140;24.760;2022-12-18T10:44:11;11.70;;;5.63;;
52718;SDS011;38616;42.140;24.760;2022-12-18T10:46:42;13.10;;;5.75;;
52718;SDS011;38616;42.140;24.760;2022-12-18T10:49:18;10.98;;;5.05;;
52718;SDS011;38616;42.140;24.760;2022-12-18T10:55:01;16.00;;;6.63;;
52718;SDS011;38616;42.140;24.760;2022-12-18T10:57:29;11.80;;;5.93;;
52718;SDS011;38616;42.140;24.760;2022-12-18T10:59:56;12.70;;;5.88;;
52718;SDS011;38616;42.140;24.760;2022-12-18T11:02:35;9.90;;;4.43;;
52718;SDS011;38616;42.140;24.760;2022-12-18T11:05:25;16.33;;;6.00;;
52718;SDS011;38616;42.140;24.760;2022-12-18T11:07:58;15.00;;;7.15;;
52718;SDS011;38616;42.140;24.760;2022-12-18T11:10:35;18.95;;;8.70;;
52718;SDS011;38616;42.140;24.760;2022-12-18T11:13:36;16.23;;;7.22;;
52718;SDS011;38616;42.140;24.760;2022-12-18T11:15:55;14.60;;;7.15;;
52718;SDS011;38616;42.140;24.760;2022-12-18T11:18:26;12.02;;;6.40;;
52718;SDS011;38616;42.140;24.760;2022-12-18T11:21:07;11.73;;;6.45;;
52718;SDS011;38616;42.140;24.760;2022-12-18T11:23:35;15.38;;;7.32;;
52718;SDS011;38616;42.140;24.760;2022-12-18T11:26:03;15.45;;;7.55;;
52718;SDS011;38616;42.140;24.760;2022-12-18T11:28:47;13.40;;;5.93;;
52718;SDS011;38616;42.140;24.760;2022-12-18T11:34:11;15.20;;;6.47;;
52718;SDS011;38616;42.140;24.760;2022-12-18T11:36:52;17.40;;;7.95;;
52718;SDS011;38616;42.140;24.760;2022-12-18T11:39:27;10.40;;;5.70;;
52718;SDS011;38616;42.140;24.760;2022-12-18T11:50:54;13.68;;;5.90;;
52718;SDS011;38616;42.140;24.760;2022-12-18T11:53:22;14.38;;;6.55;;
52718;SDS011;38616;42.140;24.760;2022-12-18T11:58:54;12.05;;;5.93;;
52718;SDS011;38616;42.140;24.760;2022-12-18T12:01:48;17.85;;;8.07;;
52718;SDS011;38616;42.140;24.760;2022-12-18T12:19:10;18.50;;;8.52;;
52718;SDS011;38616;42.140;24.760;2022-12-18T12:29:39;17.27;;;6.70;;
52718;SDS011;38616;42.140;24.760;2022-12-18T12:40:56;21.88;;;10.35;;
52718;SDS011;38616;42.140;24.760;2022-12-18T12:43:46;14.80;;;6.82;;
52718;SDS011;38616;42.140;24.760;2022-12-18T12:46:15;16.27;;;7.70;;
52718;SDS011;38616;42.140;24.760;2022-12-18T12:48:46;12.82;;;6.43;;
52718;SDS011;38616;42.140;24.760;2022-12-18T12:51:42;14.80;;;5.80;;
52718;SDS011;38616;42.140;24.760;2022-12-18T12:54:21;11.05;;;5.90;;
52718;SDS011;38616;42.140;24.760;2022-12-18T12:56:56;13.25;;;5.80;;
52718;SDS011;38616;42.140;24.760;2022-12-18T13:05:09;14.23;;;6.55;;
52718;SDS011;38616;42.140;24.760;2022-12-18T13:07:47;13.43;;;6.28;;
52718;SDS011;38616;42.140;24.760;2022-12-18T13:12:57;17.42;;;8.15;;
52718;SDS011;38616;42.140;24.760;2022-12-18T13:15:30;18.55;;;8.77;;
52718;SDS011;38616;42.140;24.760;2022-12-18T13:18:05;14.73;;;8.35;;
52718;SDS011;38616;42.140;24.760;2022-12-18T13:28:23;18.38;;;7.88;;
52718;SDS011;38616;42.140;24.760;2022-12-18T13:31:10;17.10;;;7.72;;
52718;SDS011;38616;42.140;24.760;2022-12-18T13:33:37;16.65;;;8.85;;
52718;SDS011;38616;42.140;24.760;2022-12-18T13:41:47;18.05;;;7.75;;
52718;SDS011;38616;42.140;24.760;2022-12-18T13:47:00;19.33;;;8.00;;
52718;SDS011;38616;42.140;24.760;2022-12-18T13:49:35;15.65;;;7.65;;
52718;SDS011;38616;42.140;24.760;2022-12-18T13:52:14;15.70;;;7.15;;
52718;SDS011;38616;42.140;24.760;2022-12-18T13:54:42;18.55;;;9.00;;
52718;SDS011;38616;42.140;24.760;2022-12-18T13:57:29;16.55;;;8.48;;
52718;SDS011;38616;42.140;24.760;2022-12-18T14:00:14;18.90;;;8.98;;
52718;SDS011;38616;42.140;24.760;2022-12-18T14:02:44;18.67;;;9.00;;
52718;SDS011;38616;42.140;24.760;2022-12-18T14:05:21;26.50;;;11.50;;
52718;SDS011;38616;42.140;24.760;2022-12-18T14:07:54;21.00;;;10.80;;
52718;SDS011;38616;42.140;24.760;2022-12-18T14:10:25;17.65;;;9.57;;
52718;SDS011;38616;42.140;24.760;2022-12-18T14:12:51;21.27;;;10.52;;
52718;SDS011;38616;42.140;24.760;2022-12-18T14:15:32;21.58;;;10.38;;
52718;SDS011;38616;42.140;24.760;2022-12-18T14:20:29;26.00;;;13.20;;
52718;SDS011;38616;42.140;24.760;2022-12-18T14:22:56;21.10;;;10.50;;
52718;SDS011;38616;42.140;24.760;2022-12-18T14:25:24;21.05;;;10.77;;
52718;SDS011;38616;42.140;24.760;2022-12-18T14:35:26;18.50;;;8.70;;
52718;SDS011;38616;42.140;24.760;2022-12-18T14:37:52;17.70;;;9.50;;
52718;SDS011;38616;42.140;24.760;2022-12-18T14:40:17;17.58;;;9.07;;
52718;SDS011;38616;42.140;24.760;2022-12-18T14:42:42;18.40;;;9.45;;
52718;SDS011;38616;42.140;24.760;2022-12-18T14:48:05;24.58;;;10.65;;
52718;SDS011;38616;42.140;24.760;2022-12-18T14:53:05;32.78;;;18.08;;
52718;SDS011;38616;42.140;24.760;2022-12-18T14:55:34;33.60;;;21.58;;
52718;SDS011;38616;42.140;24.760;2022-12-18T14:57:59;23.42;;;12.52;;
52718;SDS011;38616;42.140;24.760;2022-12-18T15:00:25;23.38;;;11.30;;
52718;SDS011;38616;42.140;24.760;2022-12-18T15:02:54;22.63;;;11.57;;
52718;SDS011;38616;42.140;24.760;2022-12-18T15:05:25;21.40;;;11.25;;
52718;SDS011;38616;42.140;24.760;2022-12-18T15:07:54;26.38;;;13.15;;
52718;SDS011;38616;42.140;24.760;2022-12-18T15:10:23;21.17;;;11.95;;
52718;SDS011;38616;42.140;24.760;2022-12-18T15:18:23;24.92;;;12.15;;
52718;SDS011;38616;42.140;24.760;2022-12-18T15:20:51;24.88;;;12.10;;
52718;SDS011;38616;42.140;24.760;2022-12-18T15:23:27;26.38;;;10.73;;
52718;SDS011;38616;42.140;24.760;2022-12-18T15:28:51;24.30;;;13.88;;
52718;SDS011;38616;42.140;24.760;2022-12-18T15:31:26;24.67;;;12.23;;
52718;SDS011;38616;42.140;24.760;2022-12-18T15:36:21;26.00;;;11.73;;
52718;SDS011;38616;42.140;24.760;2022-12-18T15:38:48;31.80;;;17.23;;
52718;SDS011;38616;42.140;24.760;2022-12-18T15:41:15;25.17;;;13.32;;
52718;SDS011;38616;42.140;24.760;2022-12-18T15:43:43;27.20;;;13.45;;
52718;SDS011;38616;42.140;24.760;2022-12-18T15:46:16;24.20;;;12.95;;
52718;SDS011;38616;42.140;24.760;2022-12-18T15:48:53;36.15;;;19.98;;
52718;SDS011;38616;42.140;24.760;2022-12-18T15:51:33;28.00;;;16.00;;
52718;SDS011;38616;42.140;24.760;2022-12-18T15:54:02;26.95;;;13.93;;
52718;SDS011;38616;42.140;24.760;2022-12-18T15:59:14;19.95;;;10.98;;
52718;SDS011;38616;42.140;24.760;2022-12-18T16:01:43;27.10;;;10.77;;
52718;SDS011;38616;42.140;24.760;2022-12-18T16:04:11;21.75;;;10.55;;
52718;SDS011;38616;42.140;24.760;2022-12-18T16:06:37;23.50;;;10.83;;
52718;SDS011;38616;42.140;24.760;2022-12-18T16:09:03;19.17;;;9.20;;
52718;SDS011;38616;42.140;24.760;2022-12-18T16:11:29;20.92;;;10.48;;
52718;SDS011;38616;42.140;24.760;2022-12-18T16:16:49;18.23;;;8.60;;
52718;SDS011;38616;42.140;24.760;2022-12-18T16:19:17;19.27;;;9.05;;
52718;SDS011;38616;42.140;24.760;2022-12-18T16:21:43;27.73;;;12.02;;
52718;SDS011;38616;42.140;24.760;2022-12-18T16:24:31;27.00;;;11.73;;
52718;SDS011;38616;42.140;24.760;2022-12-18T16:26:57;19.03;;;8.47;;
52718;SDS011;38616;42.140;24.760;2022-12-18T16:29:24;17.25;;;8.07;;
52718;SDS011;38616;42.140;24.760;2022-12-18T16:31:55;19.15;;;8.27;;
52718;SDS011;38616;42.140;24.760;2022-12-18T16:34:23;17.13;;;8.48;;
52718;SDS011;38616;42.140;24.760;2022-12-18T16:36:52;18.60;;;10.10;;
52718;SDS011;38616;42.140;24.760;2022-12-18T16:39:18;15.27;;;7.77;;
52718;SDS011;38616;42.140;24.760;2022-12-18T16:41:45;16.83;;;7.60;;
52718;SDS011;38616;42.140;24.760;2022-12-18T16:44:11;18.05;;;8.07;;
52718;SDS011;38616;42.140;24.760;2022-12-18T16:46:37;14.77;;;7.40;;
52718;SDS011;38616;42.140;24.760;2022-12-18T16:49:02;22.00;;;8.07;;
52718;SDS011;38616;42.140;24.760;2022-12-18T16:51:28;19.92;;;9.18;;
52718;SDS011;38616;42.140;24.760;2022-12-18T16:53:54;19.92;;;8.68;;
52718;SDS011;38616;42.140;24.760;2022-12-18T16:56:20;18.73;;;9.32;;
52718;SDS011;38616;42.140;24.760;2022-12-18T16:58:55;20.75;;;10.05;;
52718;SDS011;38616;42.140;24.760;2022-12-18T17:01:23;19.13;;;8.73;;
52718;SDS011;38616;42.140;24.760;2022-12-18T17:03:53;25.55;;;10.63;;